sensor_id;sensor_type;location;lat;lon;timestamp;P1;durP1;ratioP1;P2;durP2;ratioP2
51298;SDS011;37382;45.192;9.790;2024-02-15T00:00:31;36.78;;;24.77;;
51298;SDS011;37382;45.192;9.790;2024-02-15T00:03:00;39.70;;;25.25;;
51298;SDS011;37382;45.192;9.790;2024-02-15T00:05:27;23.42;;;18.67;;
51298;SDS011;37382;45.192;9.790;2024-02-15T00:07:54;25.50;;;18.20;;
51298;SDS011;37382;45.192;9.790;2024-02-15T00:10:22;22.73;;;16.52;;
51298;SDS011;37382;45.192;9.790;2024-02-15T00:12:51;24.85;;;16.77;;
51298;SDS011;37382;45.192;9.790;2024-02-15T00:15:19;20.90;;;14.60;;
51298;SDS011;37382;45.192;9.790;2024-02-15T00:17:47;24.33;;;17.27;;
51298;SDS011;37382;45.192;9.790;2024-02-15T00:20:15;27.65;;;19.35;;
51298;SDS011;37382;45.192;9.790;2024-02-15T00:22:44;27.80;;;17.48;;
51298;SDS011;37382;45.192;9.790;2024-02-15T00:25:12;25.27;;;18.77;;
51298;SDS011;37382;45.192;9.790;2024-02-15T00:27:41;28.90;;;20.08;;
51298;SDS011;37382;45.192;9.790;2024-02-15T00:30:09;28.95;;;21.38;;
51298;SDS011;37382;45.192;9.790;2024-02-15T00:32:38;38.83;;;24.75;;
51298;SDS011;37382;45.192;9.790;2024-02-15T00:35:06;39.53;;;23.95;;
51298;SDS011;37382;45.192;9.790;2024-02-15T00:37:35;33.10;;;23.52;;
51298;SDS011;37382;45.192;9.790;2024-02-15T00:40:03;37.63;;;25.40;;
51298;SDS011;37382;45.192;9.790;2024-02-15T00:42:31;37.67;;;24.38;;
51298;SDS011;37382;45.192;9.790;2024-02-15T00:44:58;33.85;;;23.88;;
51298;SDS011;37382;45.192;9.790;2024-02-15T00:47:26;25.88;;;19.77;;
51298;SDS011;37382;45.192;9.790;2024-02-15T00:49:55;37.05;;;21.65;;
51298;SDS011;37382;45.192;9.790;2024-02-15T00:52:23;30.83;;;21.38;;
51298;SDS011;37382;45.192;9.790;2024-02-15T00:54:51;33.75;;;21.13;;
51298;SDS011;37382;45.192;9.790;2024-02-15T00:57:18;27.10;;;19.63;;
51298;SDS011;37382;45.192;9.790;2024-02-15T00:59:45;27.13;;;19.05;;
51298;SDS011;37382;45.192;9.790;2024-02-15T01:02:13;23.25;;;17.77;;
51298;SDS011;37382;45.192;9.790;2024-02-15T01:04:40;25.98;;;17.02;;
51298;SDS011;37382;45.192;9.790;2024-02-15T01:07:10;19.73;;;15.77;;
51298;SDS011;37382;45.192;9.790;2024-02-15T01:09:38;21.48;;;13.07;;
51298;SDS011;37382;45.192;9.790;2024-02-15T01:12:05;16.55;;;13.88;;
51298;SDS011;37382;45.192;9.790;2024-02-15T01:14:33;17.88;;;14.57;;
51298;SDS011;37382;45.192;9.790;2024-02-15T01:17:01;28.73;;;18.73;;
51298;SDS011;37382;45.192;9.790;2024-02-15T01:19:29;26.67;;;18.92;;
51298;SDS011;37382;45.192;9.790;2024-02-15T01:21:56;22.70;;;15.38;;
51298;SDS011;37382;45.192;9.790;2024-02-15T01:24:26;20.55;;;15.70;;
51298;SDS011;37382;45.192;9.790;2024-02-15T01:26:54;22.35;;;15.93;;
51298;SDS011;37382;45.192;9.790;2024-02-15T01:29:22;22.80;;;16.73;;
51298;SDS011;37382;45.192;9.790;2024-02-15T01:31:49;21.38;;;17.02;;
51298;SDS011;37382;45.192;9.790;2024-02-15T01:34:17;19.35;;;16.05;;
51298;SDS011;37382;45.192;9.790;2024-02-15T01:36:47;19.85;;;15.57;;
51298;SDS011;37382;45.192;9.790;2024-02-15T01:39:15;20.17;;;17.30;;
51298;SDS011;37382;45.192;9.790;2024-02-15T01:41:47;20.60;;;15.95;;
51298;SDS011;37382;45.192;9.790;2024-02-15T01:44:15;19.58;;;16.55;;
51298;SDS011;37382;45.192;9.790;2024-02-15T01:46:42;17.77;;;15.00;;
51298;SDS011;37382;45.192;9.790;2024-02-15T01:49:10;19.67;;;15.90;;
51298;SDS011;37382;45.192;9.790;2024-02-15T01:51:39;20.73;;;15.65;;
51298;SDS011;37382;45.192;9.790;2024-02-15T01:54:11;20.23;;;15.70;;
51298;SDS011;37382;45.192;9.790;2024-02-15T01:56:40;18.00;;;15.82;;
51298;SDS011;37382;45.192;9.790;2024-02-15T01:59:09;19.63;;;14.88;;
51298;SDS011;37382;45.192;9.790;2024-02-15T02:01:38;19.35;;;15.68;;
51298;SDS011;37382;45.192;9.790;2024-02-15T02:04:06;18.17;;;15.63;;
51298;SDS011;37382;45.192;9.790;2024-02-15T02:06:33;19.77;;;15.63;;
51298;SDS011;37382;45.192;9.790;2024-02-15T02:09:01;21.60;;;16.55;;
51298;SDS011;37382;45.192;9.790;2024-02-15T02:11:30;23.92;;;17.10;;
51298;SDS011;37382;45.192;9.790;2024-02-15T02:13:57;20.77;;;15.50;;
51298;SDS011;37382;45.192;9.790;2024-02-15T02:18:56;20.53;;;15.43;;
51298;SDS011;37382;45.192;9.790;2024-02-15T02:21:25;16.63;;;13.75;;
51298;SDS011;37382;45.192;9.790;2024-02-15T02:23:55;20.33;;;13.80;;
51298;SDS011;37382;45.192;9.790;2024-02-15T02:26:24;15.60;;;12.98;;
51298;SDS011;37382;45.192;9.790;2024-02-15T02:28:52;16.42;;;13.52;;
51298;SDS011;37382;45.192;9.790;2024-02-15T02:31:23;17.83;;;13.68;;
51298;SDS011;37382;45.192;9.790;2024-02-15T02:33:53;24.00;;;15.13;;
51298;SDS011;37382;45.192;9.790;2024-02-15T02:36:22;17.63;;;12.57;;
51298;SDS011;37382;45.192;9.790;2024-02-15T02:38:53;9.80;;;8.80;;
51298;SDS011;37382;45.192;9.790;2024-02-15T02:41:21;13.45;;;9.18;;
51298;SDS011;37382;45.192;9.790;2024-02-15T02:43:48;12.05;;;9.50;;
51298;SDS011;37382;45.192;9.790;2024-02-15T02:46:16;11.23;;;8.50;;
51298;SDS011;37382;45.192;9.790;2024-02-15T02:48:43;9.68;;;8.75;;
51298;SDS011;37382;45.192;9.790;2024-02-15T02:51:11;12.23;;;8.60;;
51298;SDS011;37382;45.192;9.790;2024-02-15T02:53:39;13.18;;;8.90;;
51298;SDS011;37382;45.192;9.790;2024-02-15T02:56:07;10.70;;;9.63;;
51298;SDS011;37382;45.192;9.790;2024-02-15T02:58:37;10.02;;;8.52;;
51298;SDS011;37382;45.192;9.790;2024-02-15T03:01:09;10.57;;;9.48;;
51298;SDS011;37382;45.192;9.790;2024-02-15T03:03:42;12.23;;;10.93;;
51298;SDS011;37382;45.192;9.790;2024-02-15T03:06:10;18.00;;;10.68;;
51298;SDS011;37382;45.192;9.790;2024-02-15T03:08:38;11.93;;;10.70;;
51298;SDS011;37382;45.192;9.790;2024-02-15T03:11:06;14.30;;;11.43;;
51298;SDS011;37382;45.192;9.790;2024-02-15T03:13:33;17.13;;;13.50;;
51298;SDS011;37382;45.192;9.790;2024-02-15T03:16:01;18.23;;;14.70;;
51298;SDS011;37382;45.192;9.790;2024-02-15T03:18:28;19.50;;;14.05;;
51298;SDS011;37382;45.192;9.790;2024-02-15T03:20:56;25.05;;;15.07;;
51298;SDS011;37382;45.192;9.790;2024-02-15T03:23:23;17.80;;;14.63;;
51298;SDS011;37382;45.192;9.790;2024-02-15T03:25:51;17.10;;;14.23;;
51298;SDS011;37382;45.192;9.790;2024-02-15T03:28:18;22.80;;;15.57;;
51298;SDS011;37382;45.192;9.790;2024-02-15T03:30:48;20.25;;;14.95;;
51298;SDS011;37382;45.192;9.790;2024-02-15T03:33:16;19.45;;;12.55;;
51298;SDS011;37382;45.192;9.790;2024-02-15T03:35:43;16.05;;;12.57;;
51298;SDS011;37382;45.192;9.790;2024-02-15T03:38:11;17.15;;;12.82;;
51298;SDS011;37382;45.192;9.790;2024-02-15T03:40:39;16.75;;;11.55;;
51298;SDS011;37382;45.192;9.790;2024-02-15T03:43:08;15.98;;;12.57;;
51298;SDS011;37382;45.192;9.790;2024-02-15T03:45:35;23.15;;;16.08;;
51298;SDS011;37382;45.192;9.790;2024-02-15T03:48:04;19.40;;;14.15;;
51298;SDS011;37382;45.192;9.790;2024-02-15T03:50:32;21.80;;;14.57;;
51298;SDS011;37382;45.192;9.790;2024-02-15T03:53:00;19.73;;;13.98;;
51298;SDS011;37382;45.192;9.790;2024-02-15T03:55:27;19.27;;;14.88;;
51298;SDS011;37382;45.192;9.790;2024-02-15T03:57:55;17.05;;;13.57;;
51298;SDS011;37382;45.192;9.790;2024-02-15T04:00:24;19.50;;;13.40;;
51298;SDS011;37382;45.192;9.790;2024-02-15T04:02:52;15.43;;;13.23;;
51298;SDS011;37382;45.192;9.790;2024-02-15T04:05:20;11.35;;;9.73;;
51298;SDS011;37382;45.192;9.790;2024-02-15T04:07:50;9.02;;;8.05;;
51298;SDS011;37382;45.192;9.790;2024-02-15T04:10:17;10.85;;;8.27;;
51298;SDS011;37382;45.192;9.790;2024-02-15T04:12:54;9.20;;;7.93;;
51298;SDS011;37382;45.192;9.790;2024-02-15T04:15:21;7.68;;;6.95;;
51298;SDS011;37382;45.192;9.790;2024-02-15T04:17:49;7.70;;;6.88;;
51298;SDS011;37382;45.192;9.790;2024-02-15T04:20:23;8.27;;;7.43;;
51298;SDS011;37382;45.192;9.790;2024-02-15T04:22:50;35.42;;;11.35;;
51298;SDS011;37382;45.192;9.790;2024-02-15T04:25:17;11.25;;;10.15;;
51298;SDS011;37382;45.192;9.790;2024-02-15T04:27:47;12.90;;;11.00;;
51298;SDS011;37382;45.192;9.790;2024-02-15T04:30:15;14.52;;;11.93;;
51298;SDS011;37382;45.192;9.790;2024-02-15T04:32:44;18.77;;;13.63;;
51298;SDS011;37382;45.192;9.790;2024-02-15T04:35:12;24.00;;;14.52;;
51298;SDS011;37382;45.192;9.790;2024-02-15T04:37:41;52.95;;;23.20;;
51298;SDS011;37382;45.192;9.790;2024-02-15T04:40:09;57.97;;;14.68;;
51298;SDS011;37382;45.192;9.790;2024-02-15T04:42:39;75.95;;;14.80;;
51298;SDS011;37382;45.192;9.790;2024-02-15T04:45:10;53.30;;;14.52;;
51298;SDS011;37382;45.192;9.790;2024-02-15T04:47:53;70.43;;;14.70;;
51298;SDS011;37382;45.192;9.790;2024-02-15T04:50:21;43.17;;;13.57;;
51298;SDS011;37382;45.192;9.790;2024-02-15T04:52:48;32.05;;;16.52;;
51298;SDS011;37382;45.192;9.790;2024-02-15T04:55:17;39.33;;;15.30;;
51298;SDS011;37382;45.192;9.790;2024-02-15T04:57:45;51.50;;;14.60;;
51298;SDS011;37382;45.192;9.790;2024-02-15T05:00:16;22.43;;;15.50;;
51298;SDS011;37382;45.192;9.790;2024-02-15T05:02:47;18.25;;;14.20;;
51298;SDS011;37382;45.192;9.790;2024-02-15T05:05:16;17.63;;;14.27;;
51298;SDS011;37382;45.192;9.790;2024-02-15T05:07:44;51.88;;;14.18;;
51298;SDS011;37382;45.192;9.790;2024-02-15T05:10:12;23.38;;;13.82;;
51298;SDS011;37382;45.192;9.790;2024-02-15T05:12:39;58.20;;;16.50;;
51298;SDS011;37382;45.192;9.790;2024-02-15T05:15:08;27.98;;;15.63;;
51298;SDS011;37382;45.192;9.790;2024-02-15T05:17:40;19.30;;;15.00;;
51298;SDS011;37382;45.192;9.790;2024-02-15T05:20:10;44.30;;;17.20;;
51298;SDS011;37382;45.192;9.790;2024-02-15T05:22:41;50.72;;;16.45;;
51298;SDS011;37382;45.192;9.790;2024-02-15T05:25:17;17.17;;;15.38;;
51298;SDS011;37382;45.192;9.790;2024-02-15T05:27:54;18.45;;;14.80;;
51298;SDS011;37382;45.192;9.790;2024-02-15T05:30:27;17.83;;;13.85;;
51298;SDS011;37382;45.192;9.790;2024-02-15T05:32:54;15.20;;;13.15;;
51298;SDS011;37382;45.192;9.790;2024-02-15T05:35:22;15.45;;;12.07;;
51298;SDS011;37382;45.192;9.790;2024-02-15T05:37:51;16.15;;;13.68;;
51298;SDS011;37382;45.192;9.790;2024-02-15T05:40:21;14.25;;;12.75;;
51298;SDS011;37382;45.192;9.790;2024-02-15T05:42:54;14.23;;;12.70;;
51298;SDS011;37382;45.192;9.790;2024-02-15T05:47:54;16.85;;;13.48;;
51298;SDS011;37382;45.192;9.790;2024-02-15T05:50:22;14.73;;;13.15;;
51298;SDS011;37382;45.192;9.790;2024-02-15T05:52:51;16.55;;;12.93;;
51298;SDS011;37382;45.192;9.790;2024-02-15T05:55:20;16.25;;;13.45;;
51298;SDS011;37382;45.192;9.790;2024-02-15T05:57:48;14.55;;;12.63;;
51298;SDS011;37382;45.192;9.790;2024-02-15T06:00:15;16.38;;;14.55;;
51298;SDS011;37382;45.192;9.790;2024-02-15T06:02:49;19.13;;;15.05;;
51298;SDS011;37382;45.192;9.790;2024-02-15T06:05:18;36.55;;;16.50;;
51298;SDS011;37382;45.192;9.790;2024-02-15T06:07:47;34.63;;;18.70;;
51298;SDS011;37382;45.192;9.790;2024-02-15T06:10:15;51.42;;;27.90;;
51298;SDS011;37382;45.192;9.790;2024-02-15T06:12:43;40.97;;;21.17;;
51298;SDS011;37382;45.192;9.790;2024-02-15T06:15:11;30.52;;;17.13;;
51298;SDS011;37382;45.192;9.790;2024-02-15T06:17:45;37.75;;;16.30;;
51298;SDS011;37382;45.192;9.790;2024-02-15T06:20:15;39.03;;;16.48;;
51298;SDS011;37382;45.192;9.790;2024-02-15T06:22:45;34.67;;;15.60;;
51298;SDS011;37382;45.192;9.790;2024-02-15T06:25:13;52.80;;;16.38;;
51298;SDS011;37382;45.192;9.790;2024-02-15T06:27:42;46.70;;;19.20;;
51298;SDS011;37382;45.192;9.790;2024-02-15T06:30:10;66.88;;;18.17;;
51298;SDS011;37382;45.192;9.790;2024-02-15T06:32:58;60.90;;;18.75;;
51298;SDS011;37382;45.192;9.790;2024-02-15T06:35:44;52.83;;;21.40;;
51298;SDS011;37382;45.192;9.790;2024-02-15T06:38:30;55.42;;;20.70;;
51298;SDS011;37382;45.192;9.790;2024-02-15T06:41:16;44.03;;;21.05;;
51298;SDS011;37382;45.192;9.790;2024-02-15T06:43:44;51.13;;;20.83;;
51298;SDS011;37382;45.192;9.790;2024-02-15T06:46:11;45.60;;;19.35;;
51298;SDS011;37382;45.192;9.790;2024-02-15T06:48:44;41.72;;;19.55;;
51298;SDS011;37382;45.192;9.790;2024-02-15T06:51:15;48.63;;;20.98;;
51298;SDS011;37382;45.192;9.790;2024-02-15T06:53:43;35.58;;;18.90;;
51298;SDS011;37382;45.192;9.790;2024-02-15T06:56:11;31.38;;;20.15;;
51298;SDS011;37382;45.192;9.790;2024-02-15T06:58:39;48.42;;;21.85;;
51298;SDS011;37382;45.192;9.790;2024-02-15T07:01:10;54.50;;;26.50;;
51298;SDS011;37382;45.192;9.790;2024-02-15T07:03:40;41.58;;;27.45;;
51298;SDS011;37382;45.192;9.790;2024-02-15T07:06:08;46.42;;;34.75;;
51298;SDS011;37382;45.192;9.790;2024-02-15T07:08:36;79.70;;;43.95;;
51298;SDS011;37382;45.192;9.790;2024-02-15T07:11:03;67.65;;;41.47;;
51298;SDS011;37382;45.192;9.790;2024-02-15T07:13:31;36.38;;;27.88;;
51298;SDS011;37382;45.192;9.790;2024-02-15T07:15:59;34.58;;;25.52;;
51298;SDS011;37382;45.192;9.790;2024-02-15T07:18:26;52.00;;;30.88;;
51298;SDS011;37382;45.192;9.790;2024-02-15T07:20:56;36.88;;;27.25;;
51298;SDS011;37382;45.192;9.790;2024-02-15T07:23:28;40.35;;;28.33;;
51298;SDS011;37382;45.192;9.790;2024-02-15T07:25:55;41.95;;;31.80;;
51298;SDS011;37382;45.192;9.790;2024-02-15T07:28:23;41.50;;;31.27;;
51298;SDS011;37382;45.192;9.790;2024-02-15T07:30:53;50.05;;;34.03;;
51298;SDS011;37382;45.192;9.790;2024-02-15T07:33:22;46.72;;;33.65;;
51298;SDS011;37382;45.192;9.790;2024-02-15T07:35:51;43.95;;;30.90;;
51298;SDS011;37382;45.192;9.790;2024-02-15T07:38:19;50.22;;;31.65;;
51298;SDS011;37382;45.192;9.790;2024-02-15T07:40:50;42.67;;;29.20;;
51298;SDS011;37382;45.192;9.790;2024-02-15T07:43:17;44.45;;;28.83;;
51298;SDS011;37382;45.192;9.790;2024-02-15T07:45:45;40.28;;;27.45;;
51298;SDS011;37382;45.192;9.790;2024-02-15T07:48:16;45.15;;;29.30;;
51298;SDS011;37382;45.192;9.790;2024-02-15T07:50:44;73.68;;;34.25;;
51298;SDS011;37382;45.192;9.790;2024-02-15T07:53:12;53.38;;;30.95;;
51298;SDS011;37382;45.192;9.790;2024-02-15T07:55:40;56.10;;;31.88;;
51298;SDS011;37382;45.192;9.790;2024-02-15T07:58:09;80.38;;;48.75;;
51298;SDS011;37382;45.192;9.790;2024-02-15T08:00:36;85.22;;;53.90;;
51298;SDS011;37382;45.192;9.790;2024-02-15T08:03:05;43.53;;;29.65;;
51298;SDS011;37382;45.192;9.790;2024-02-15T08:05:32;37.72;;;25.70;;
51298;SDS011;37382;45.192;9.790;2024-02-15T08:08:00;33.63;;;25.73;;
51298;SDS011;37382;45.192;9.790;2024-02-15T08:10:28;37.38;;;25.30;;
51298;SDS011;37382;45.192;9.790;2024-02-15T08:12:56;39.53;;;29.02;;
51298;SDS011;37382;45.192;9.790;2024-02-15T08:15:25;40.95;;;31.08;;
51298;SDS011;37382;45.192;9.790;2024-02-15T08:17:55;41.95;;;27.58;;
51298;SDS011;37382;45.192;9.790;2024-02-15T08:20:24;40.40;;;29.08;;
51298;SDS011;37382;45.192;9.790;2024-02-15T08:22:51;42.00;;;29.35;;
51298;SDS011;37382;45.192;9.790;2024-02-15T08:25:19;44.92;;;30.45;;
51298;SDS011;37382;45.192;9.790;2024-02-15T08:27:47;43.35;;;29.15;;
51298;SDS011;37382;45.192;9.790;2024-02-15T08:30:17;46.55;;;30.42;;
51298;SDS011;37382;45.192;9.790;2024-02-15T08:32:50;38.92;;;27.90;;
51298;SDS011;37382;45.192;9.790;2024-02-15T08:35:20;43.38;;;29.60;;
51298;SDS011;37382;45.192;9.790;2024-02-15T08:37:48;43.13;;;29.05;;
51298;SDS011;37382;45.192;9.790;2024-02-15T08:40:17;44.35;;;30.42;;
51298;SDS011;37382;45.192;9.790;2024-02-15T08:42:47;49.35;;;31.25;;
51298;SDS011;37382;45.192;9.790;2024-02-15T08:45:14;41.85;;;29.50;;
51298;SDS011;37382;45.192;9.790;2024-02-15T08:47:42;47.60;;;31.25;;
51298;SDS011;37382;45.192;9.790;2024-02-15T08:50:11;48.70;;;31.67;;
51298;SDS011;37382;45.192;9.790;2024-02-15T08:52:39;46.90;;;30.73;;
51298;SDS011;37382;45.192;9.790;2024-02-15T08:55:08;43.67;;;31.55;;
51298;SDS011;37382;45.192;9.790;2024-02-15T08:57:37;42.42;;;29.73;;
51298;SDS011;37382;45.192;9.790;2024-02-15T09:00:08;42.23;;;31.43;;
51298;SDS011;37382;45.192;9.790;2024-02-15T09:02:44;40.42;;;30.30;;
51298;SDS011;37382;45.192;9.790;2024-02-15T09:05:13;44.47;;;30.92;;
51298;SDS011;37382;45.192;9.790;2024-02-15T09:07:42;47.10;;;30.48;;
51298;SDS011;37382;45.192;9.790;2024-02-15T09:10:11;45.22;;;30.83;;
51298;SDS011;37382;45.192;9.790;2024-02-15T09:12:39;45.45;;;31.23;;
51298;SDS011;37382;45.192;9.790;2024-02-15T09:15:08;42.83;;;30.90;;
51298;SDS011;37382;45.192;9.790;2024-02-15T09:17:38;45.42;;;31.27;;
51298;SDS011;37382;45.192;9.790;2024-02-15T09:20:16;50.45;;;32.42;;
51298;SDS011;37382;45.192;9.790;2024-02-15T09:22:48;41.72;;;30.85;;
51298;SDS011;37382;45.192;9.790;2024-02-15T09:25:20;46.10;;;32.60;;
51298;SDS011;37382;45.192;9.790;2024-02-15T09:27:51;44.50;;;31.23;;
51298;SDS011;37382;45.192;9.790;2024-02-15T09:30:19;45.63;;;31.02;;
51298;SDS011;37382;45.192;9.790;2024-02-15T09:32:46;45.03;;;32.00;;
51298;SDS011;37382;45.192;9.790;2024-02-15T09:35:14;51.33;;;31.30;;
51298;SDS011;37382;45.192;9.790;2024-02-15T09:37:45;49.05;;;32.30;;
51298;SDS011;37382;45.192;9.790;2024-02-15T09:40:17;51.30;;;32.53;;
51298;SDS011;37382;45.192;9.790;2024-02-15T09:42:46;48.30;;;31.60;;
51298;SDS011;37382;45.192;9.790;2024-02-15T09:45:15;43.22;;;31.52;;
51298;SDS011;37382;45.192;9.790;2024-02-15T09:47:44;46.45;;;29.95;;
51298;SDS011;37382;45.192;9.790;2024-02-15T09:50:14;48.60;;;31.52;;
51298;SDS011;37382;45.192;9.790;2024-02-15T09:52:44;41.28;;;30.45;;
51298;SDS011;37382;45.192;9.790;2024-02-15T09:55:13;44.70;;;30.75;;
51298;SDS011;37382;45.192;9.790;2024-02-15T09:57:42;53.03;;;32.90;;
51298;SDS011;37382;45.192;9.790;2024-02-15T10:00:11;50.60;;;33.03;;
51298;SDS011;37382;45.192;9.790;2024-02-15T10:02:47;43.03;;;30.60;;
51298;SDS011;37382;45.192;9.790;2024-02-15T10:05:16;43.42;;;30.52;;
51298;SDS011;37382;45.192;9.790;2024-02-15T10:07:45;40.45;;;28.45;;
51298;SDS011;37382;45.192;9.790;2024-02-15T10:12:48;43.75;;;31.50;;
51298;SDS011;37382;45.192;9.790;2024-02-15T10:18:01;41.33;;;29.48;;
51298;SDS011;37382;45.192;9.790;2024-02-15T10:20:30;50.72;;;29.67;;
51298;SDS011;37382;45.192;9.790;2024-02-15T10:23:08;47.15;;;30.23;;
51298;SDS011;37382;45.192;9.790;2024-02-15T10:25:40;41.00;;;31.00;;
51298;SDS011;37382;45.192;9.790;2024-02-15T10:28:11;44.50;;;31.08;;
51298;SDS011;37382;45.192;9.790;2024-02-15T10:30:43;44.72;;;31.20;;
51298;SDS011;37382;45.192;9.790;2024-02-15T10:33:20;39.78;;;29.42;;
51298;SDS011;37382;45.192;9.790;2024-02-15T10:36:06;45.60;;;30.23;;
51298;SDS011;37382;45.192;9.790;2024-02-15T10:38:35;43.20;;;30.13;;
51298;SDS011;37382;45.192;9.790;2024-02-15T10:41:06;50.65;;;32.17;;
51298;SDS011;37382;45.192;9.790;2024-02-15T10:43:35;41.53;;;29.38;;
51298;SDS011;37382;45.192;9.790;2024-02-15T10:46:06;45.70;;;29.80;;
51298;SDS011;37382;45.192;9.790;2024-02-15T10:48:37;41.30;;;29.23;;
51298;SDS011;37382;45.192;9.790;2024-02-15T10:51:08;41.92;;;30.35;;
51298;SDS011;37382;45.192;9.790;2024-02-15T10:53:39;47.47;;;32.47;;
51298;SDS011;37382;45.192;9.790;2024-02-15T10:56:18;45.70;;;31.63;;
51298;SDS011;37382;45.192;9.790;2024-02-15T10:58:50;54.88;;;31.58;;
51298;SDS011;37382;45.192;9.790;2024-02-15T11:01:18;45.38;;;32.22;;
51298;SDS011;37382;45.192;9.790;2024-02-15T11:03:51;43.42;;;30.77;;
51298;SDS011;37382;45.192;9.790;2024-02-15T11:06:20;45.08;;;31.05;;
51298;SDS011;37382;45.192;9.790;2024-02-15T11:08:54;53.55;;;35.47;;
51298;SDS011;37382;45.192;9.790;2024-02-15T11:11:22;45.40;;;31.15;;
51298;SDS011;37382;45.192;9.790;2024-02-15T11:13:50;54.42;;;31.27;;
51298;SDS011;37382;45.192;9.790;2024-02-15T11:16:51;50.00;;;29.65;;
51298;SDS011;37382;45.192;9.790;2024-02-15T11:22:22;43.67;;;31.60;;
51298;SDS011;37382;45.192;9.790;2024-02-15T11:24:51;43.63;;;31.15;;
51298;SDS011;37382;45.192;9.790;2024-02-15T11:27:29;45.08;;;31.00;;
51298;SDS011;37382;45.192;9.790;2024-02-15T11:29:59;49.60;;;32.05;;
51298;SDS011;37382;45.192;9.790;2024-02-15T11:42:51;50.05;;;32.80;;
51298;SDS011;37382;45.192;9.790;2024-02-15T11:45:31;53.42;;;33.10;;
51298;SDS011;37382;45.192;9.790;2024-02-15T11:48:01;46.53;;;33.08;;
51298;SDS011;37382;45.192;9.790;2024-02-15T11:50:33;50.75;;;33.15;;
51298;SDS011;37382;45.192;9.790;2024-02-15T11:53:04;53.35;;;34.53;;
51298;SDS011;37382;45.192;9.790;2024-02-15T11:55:33;51.42;;;33.00;;
51298;SDS011;37382;45.192;9.790;2024-02-15T11:58:01;54.47;;;33.72;;
51298;SDS011;37382;45.192;9.790;2024-02-15T12:00:45;52.90;;;34.92;;
51298;SDS011;37382;45.192;9.790;2024-02-15T12:03:32;57.67;;;35.85;;
51298;SDS011;37382;45.192;9.790;2024-02-15T12:06:32;56.72;;;35.55;;
51298;SDS011;37382;45.192;9.790;2024-02-15T12:09:18;47.75;;;34.78;;
51298;SDS011;37382;45.192;9.790;2024-02-15T12:12:06;51.75;;;34.50;;
51298;SDS011;37382;45.192;9.790;2024-02-15T12:15:02;48.63;;;35.40;;
51298;SDS011;37382;45.192;9.790;2024-02-15T12:17:49;52.33;;;34.30;;
51298;SDS011;37382;45.192;9.790;2024-02-15T12:20:35;49.72;;;34.25;;
51298;SDS011;37382;45.192;9.790;2024-02-15T12:23:03;49.30;;;34.47;;
51298;SDS011;37382;45.192;9.790;2024-02-15T12:25:34;47.88;;;35.63;;
51298;SDS011;37382;45.192;9.790;2024-02-15T12:28:03;51.92;;;35.17;;
51298;SDS011;37382;45.192;9.790;2024-02-15T12:30:33;53.30;;;34.33;;
51298;SDS011;37382;45.192;9.790;2024-02-15T12:33:11;52.10;;;33.80;;
51298;SDS011;37382;45.192;9.790;2024-02-15T12:35:40;47.88;;;35.08;;
51298;SDS011;37382;45.192;9.790;2024-02-15T12:38:10;53.55;;;37.50;;
51298;SDS011;37382;45.192;9.790;2024-02-15T12:40:44;52.63;;;36.40;;
51298;SDS011;37382;45.192;9.790;2024-02-15T12:43:14;53.40;;;35.42;;
51298;SDS011;37382;45.192;9.790;2024-02-15T12:45:42;53.67;;;37.25;;
51298;SDS011;37382;45.192;9.790;2024-02-15T12:48:10;53.35;;;34.67;;
51298;SDS011;37382;45.192;9.790;2024-02-15T12:50:38;47.45;;;34.22;;
51298;SDS011;37382;45.192;9.790;2024-02-15T12:53:06;55.67;;;36.80;;
51298;SDS011;37382;45.192;9.790;2024-02-15T12:55:35;56.85;;;35.13;;
51298;SDS011;37382;45.192;9.790;2024-02-15T12:58:06;52.15;;;36.78;;
51298;SDS011;37382;45.192;9.790;2024-02-15T13:00:40;51.35;;;35.15;;
51298;SDS011;37382;45.192;9.790;2024-02-15T13:03:09;53.53;;;36.33;;
51298;SDS011;37382;45.192;9.790;2024-02-15T13:05:38;52.97;;;37.38;;
51298;SDS011;37382;45.192;9.790;2024-02-15T13:08:07;58.20;;;37.15;;
51298;SDS011;37382;45.192;9.790;2024-02-15T13:10:41;52.25;;;35.95;;
51298;SDS011;37382;45.192;9.790;2024-02-15T13:13:09;57.35;;;36.72;;
51298;SDS011;37382;45.192;9.790;2024-02-15T13:15:38;53.97;;;37.25;;
51298;SDS011;37382;45.192;9.790;2024-02-15T13:18:06;57.83;;;37.38;;
51298;SDS011;37382;45.192;9.790;2024-02-15T13:20:37;53.40;;;38.17;;
51298;SDS011;37382;45.192;9.790;2024-02-15T13:23:07;59.42;;;37.17;;
51298;SDS011;37382;45.192;9.790;2024-02-15T13:25:37;62.70;;;39.10;;
51298;SDS011;37382;45.192;9.790;2024-02-15T13:28:07;56.60;;;38.65;;
51298;SDS011;37382;45.192;9.790;2024-02-15T13:30:37;53.88;;;37.10;;
51298;SDS011;37382;45.192;9.790;2024-02-15T13:33:04;52.25;;;37.28;;
51298;SDS011;37382;45.192;9.790;2024-02-15T13:35:33;51.60;;;36.40;;
51298;SDS011;37382;45.192;9.790;2024-02-15T13:38:00;61.67;;;36.72;;
51298;SDS011;37382;45.192;9.790;2024-02-15T13:40:29;58.45;;;37.28;;
51298;SDS011;37382;45.192;9.790;2024-02-15T13:42:59;56.95;;;36.97;;
51298;SDS011;37382;45.192;9.790;2024-02-15T13:45:33;54.15;;;36.22;;
51298;SDS011;37382;45.192;9.790;2024-02-15T13:48:06;56.13;;;37.13;;
51298;SDS011;37382;45.192;9.790;2024-02-15T13:50:36;57.22;;;38.08;;
51298;SDS011;37382;45.192;9.790;2024-02-15T13:53:06;54.95;;;36.05;;
51298;SDS011;37382;45.192;9.790;2024-02-15T13:55:36;51.30;;;37.85;;
51298;SDS011;37382;45.192;9.790;2024-02-15T13:58:05;53.25;;;36.67;;
51298;SDS011;37382;45.192;9.790;2024-02-15T14:00:35;57.17;;;35.28;;
51298;SDS011;37382;45.192;9.790;2024-02-15T14:03:04;56.05;;;35.88;;
51298;SDS011;37382;45.192;9.790;2024-02-15T14:05:34;51.30;;;35.58;;
51298;SDS011;37382;45.192;9.790;2024-02-15T14:08:03;48.30;;;34.72;;
51298;SDS011;37382;45.192;9.790;2024-02-15T14:10:36;51.90;;;35.58;;
51298;SDS011;37382;45.192;9.790;2024-02-15T14:13:04;52.22;;;35.03;;
51298;SDS011;37382;45.192;9.790;2024-02-15T14:15:36;50.83;;;34.45;;
51298;SDS011;37382;45.192;9.790;2024-02-15T14:18:06;59.03;;;36.58;;
51298;SDS011;37382;45.192;9.790;2024-02-15T14:20:36;55.55;;;36.85;;
51298;SDS011;37382;45.192;9.790;2024-02-15T14:23:04;52.75;;;34.47;;
51298;SDS011;37382;45.192;9.790;2024-02-15T14:25:33;47.92;;;34.40;;
51298;SDS011;37382;45.192;9.790;2024-02-15T14:28:02;52.78;;;36.67;;
51298;SDS011;37382;45.192;9.790;2024-02-15T14:30:31;48.97;;;35.03;;
51298;SDS011;37382;45.192;9.790;2024-02-15T14:33:16;48.60;;;34.75;;
51298;SDS011;37382;45.192;9.790;2024-02-15T14:35:49;57.47;;;39.97;;
51298;SDS011;37382;45.192;9.790;2024-02-15T14:38:21;79.07;;;51.47;;
51298;SDS011;37382;45.192;9.790;2024-02-15T14:40:49;71.63;;;48.58;;
51298;SDS011;37382;45.192;9.790;2024-02-15T14:43:22;56.70;;;40.08;;
51298;SDS011;37382;45.192;9.790;2024-02-15T14:45:52;73.70;;;52.25;;
51298;SDS011;37382;45.192;9.790;2024-02-15T14:48:21;51.90;;;35.40;;
51298;SDS011;37382;45.192;9.790;2024-02-15T14:50:51;60.20;;;38.88;;
51298;SDS011;37382;45.192;9.790;2024-02-15T14:53:21;68.70;;;45.88;;
51298;SDS011;37382;45.192;9.790;2024-02-15T14:55:49;62.05;;;42.05;;
51298;SDS011;37382;45.192;9.790;2024-02-15T14:58:19;60.88;;;38.15;;
51298;SDS011;37382;45.192;9.790;2024-02-15T15:00:50;51.30;;;36.87;;
51298;SDS011;37382;45.192;9.790;2024-02-15T15:03:25;68.13;;;48.00;;